sensor_id;sensor_type;location;lat;lon;timestamp;pressure;altitude;pressure_sealevel;temperature;humidity
80116;BME280;69423;47.608;19.366;2023-12-20T00:00:24;99064.91;;;-1.94;100.00
80116;BME280;69423;47.608;19.366;2023-12-20T00:00:55;99068.47;;;-1.95;100.00
80116;BME280;69423;47.608;19.366;2023-12-20T00:01:26;99062.41;;;-1.95;100.00
80116;BME280;69423;47.608;19.366;2023-12-20T00:01:57;99055.41;;;-1.95;100.00
80116;BME280;69423;47.608;19.366;2023-12-20T00:02:28;99063.25;;;-1.95;100.00
80116;BME280;69423;47.608;19.366;2023-12-20T00:02:59;99058.94;;;-1.96;100.00
80116;BME280;69423;47.608;19.366;2023-12-20T00:03:30;99061.88;;;-2.00;100.00
80116;BME280;69423;47.608;19.366;2023-12-20T00:04:02;99060.84;;;-1.98;100.00
80116;BME280;69423;47.608;19.366;2023-12-20T00:04:33;99055.81;;;-2.01;100.00
80116;BME280;69423;47.608;19.366;2023-12-20T00:05:04;99049.13;;;-2.05;100.00
80116;BME280;69423;47.608;19.366;2023-12-20T00:05:35;99054.34;;;-2.05;100.00
80116;BME280;69423;47.608;19.366;2023-12-20T00:06:09;99044.84;;;-2.06;100.00
80116;BME280;69423;47.608;19.366;2023-12-20T00:06:40;99055.06;;;-2.03;100.00
80116;BME280;69423;47.608;19.366;2023-12-20T00:07:11;99053.09;;;-1.99;100.00
80116;BME280;69423;47.608;19.366;2023-12-20T00:07:42;99043.28;;;-1.96;100.00
80116;BME280;69423;47.608;19.366;2023-12-20T00:08:13;99045.69;;;-1.93;100.00
80116;BME280;69423;47.608;19.366;2023-12-20T00:08:44;99047.78;;;-1.98;100.00
80116;BME280;69423;47.608;19.366;2023-12-20T00:09:15;99044.72;;;-2.05;100.00
80116;BME280;69423;47.608;19.366;2023-12-20T00:09:46;99039.50;;;-2.05;100.00
80116;BME280;69423;47.608;19.366;2023-12-20T00:10:17;99048.06;;;-2.03;100.00
80116;BME280;69423;47.608;19.366;2023-12-20T00:10:48;99042.56;;;-1.98;100.00
80116;BME280;69423;47.608;19.366;2023-12-20T00:11:19;99041.53;;;-1.95;100.00
80116;BME280;69423;47.608;19.366;2023-12-20T00:11:50;99043.72;;;-1.89;100.00
80116;BME280;69423;47.608;19.366;2023-12-20T00:12:21;99039.31;;;-1.89;100.00
80116;BME280;69423;47.608;19.366;2023-12-20T00:12:52;99038.69;;;-1.92;100.00
80116;BME280;69423;47.608;19.366;2023-12-20T00:13:23;99038.78;;;-1.94;100.00
80116;BME280;69423;47.608;19.366;2023-12-20T00:13:54;99042.34;;;-1.95;100.00
80116;BME280;69423;47.608;19.366;2023-12-20T00:14:25;99033.03;;;-1.99;100.00
80116;BME280;69423;47.608;19.366;2023-12-20T00:14:56;99034.72;;;-1.98;100.00
80116;BME280;69423;47.608;19.366;2023-12-20T00:15:27;99034.72;;;-1.98;100.00
80116;BME280;69423;47.608;19.366;2023-12-20T00:15:59;99040.88;;;-1.99;100.00
80116;BME280;69423;47.608;19.366;2023-12-20T00:16:30;99028.03;;;-2.02;100.00
80116;BME280;69423;47.608;19.366;2023-12-20T00:17:02;99034.00;;;-2.00;100.00
80116;BME280;69423;47.608;19.366;2023-12-20T00:17:33;99039.22;;;-2.00;100.00
80116;BME280;69423;47.608;19.366;2023-12-20T00:18:04;99031.38;;;-2.00;100.00
80116;BME280;69423;47.608;19.366;2023-12-20T00:18:35;99033.13;;;-2.00;100.00
80116;BME280;69423;47.608;19.366;2023-12-20T00:19:07;99027.59;;;-1.96;100.00
80116;BME280;69423;47.608;19.366;2023-12-20T00:19:38;99031.91;;;-1.95;100.00
80116;BME280;69423;47.608;19.366;2023-12-20T00:20:09;99033.69;;;-1.95;100.00
80116;BME280;69423;47.608;19.366;2023-12-20T00:20:40;99024.28;;;-1.98;100.00
80116;BME280;69423;47.608;19.366;2023-12-20T00:21:11;99030.41;;;-1.99;100.00
80116;BME280;69423;47.608;19.366;2023-12-20T00:21:42;99014.00;;;-2.01;100.00
80116;BME280;69423;47.608;19.366;2023-12-20T00:22:13;99028.03;;;-2.02;100.00
80116;BME280;69423;47.608;19.366;2023-12-20T00:22:44;99023.41;;;-1.98;100.00
80116;BME280;69423;47.608;19.366;2023-12-20T00:23:16;99025.19;;;-1.99;100.00
80116;BME280;69423;47.608;19.366;2023-12-20T00:23:47;99023.41;;;-1.98;100.00
80116;BME280;69423;47.608;19.366;2023-12-20T00:24:18;99019.75;;;-1.96;100.00
80116;BME280;69423;47.608;19.366;2023-12-20T00:24:49;99021.22;;;-1.92;100.00
80116;BME280;69423;47.608;19.366;2023-12-20T00:25:20;99017.13;;;-1.96;100.00
80116;BME280;69423;47.608;19.366;2023-12-20T00:25:51;99023.00;;;-1.92;100.00
80116;BME280;69423;47.608;19.366;2023-12-20T00:26:22;99019.66;;;-1.94;100.00
80116;BME280;69423;47.608;19.366;2023-12-20T00:26:53;99021.22;;;-1.92;100.00
80116;BME280;69423;47.608;19.366;2023-12-20T00:27:24;99016.13;;;-1.93;100.00
80116;BME280;69423;47.608;19.366;2023-12-20T00:27:55;99021.44;;;-1.95;100.00
80116;BME280;69423;47.608;19.366;2023-12-20T00:28:26;99019.75;;;-1.96;100.00
80116;BME280;69423;47.608;19.366;2023-12-20T00:28:57;99019.22;;;-2.01;100.00
80116;BME280;69423;47.608;19.366;2023-12-20T00:29:28;99015.69;;;-2.00;100.00
80116;BME280;69423;47.608;19.366;2023-12-20T00:29:59;99012.13;;;-1.99;100.00
80116;BME280;69423;47.608;19.366;2023-12-20T00:30:30;99013.91;;;-1.99;100.00
80116;BME280;69423;47.608;19.366;2023-12-20T00:31:01;99010.16;;;-1.95;100.00
80116;BME280;69423;47.608;19.366;2023-12-20T00:31:32;99012.78;;;-1.95;100.00
80116;BME280;69423;47.608;19.366;2023-12-20T00:32:03;99006.59;;;-1.94;100.00
80116;BME280;69423;47.608;19.366;2023-12-20T00:32:35;99011.00;;;-1.95;100.00
80116;BME280;69423;47.608;19.366;2023-12-20T00:33:06;99005.13;;;-1.98;100.00
80116;BME280;69423;47.608;19.366;2023-12-20T00:33:37;99002.00;;;-2.04;100.00
80116;BME280;69423;47.608;19.366;2023-12-20T00:34:10;99008.78;;;-2.01;100.00
80116;BME280;69423;47.608;19.366;2023-12-20T00:34:41;99001.78;;;-2.00;100.00
80116;BME280;69423;47.608;19.366;2023-12-20T00:35:13;99009.63;;;-2.00;100.00
80116;BME280;69423;47.608;19.366;2023-12-20T00:35:44;99006.09;;;-1.99;100.00
80116;BME280;69423;47.608;19.366;2023-12-20T00:36:15;99005.25;;;-2.00;100.00
80116;BME280;69423;47.608;19.366;2023-12-20T00:36:46;99006.00;;;-1.98;100.00
80116;BME280;69423;47.608;19.366;2023-12-20T00:37:18;98997.19;;;-1.97;100.00
80116;BME280;69423;47.608;19.366;2023-12-20T00:37:49;99003.25;;;-1.96;100.00
80116;BME280;69423;47.608;19.366;2023-12-20T00:38:20;99002.31;;;-1.95;100.00
80116;BME280;69423;47.608;19.366;2023-12-20T00:38:51;99008.59;;;-1.98;100.00
80116;BME280;69423;47.608;19.366;2023-12-20T00:39:22;98994.69;;;-1.98;100.00
80116;BME280;69423;47.608;19.366;2023-12-20T00:39:53;98988.19;;;-2.06;100.00
80116;BME280;69423;47.608;19.366;2023-12-20T00:40:24;98991.63;;;-2.05;100.00
80116;BME280;69423;47.608;19.366;2023-12-20T00:40:55;98990.59;;;-2.03;100.00
80116;BME280;69423;47.608;19.366;2023-12-20T00:41:26;98990.59;;;-2.03;100.00
80116;BME280;69423;47.608;19.366;2023-12-20T00:41:57;98990.50;;;-2.01;100.00
80116;BME280;69423;47.608;19.366;2023-12-20T00:42:28;98989.44;;;-1.98;100.00
80116;BME280;69423;47.608;19.366;2023-12-20T00:42:59;98995.41;;;-1.96;100.00
80116;BME280;69423;47.608;19.366;2023-12-20T00:43:30;98987.69;;;-1.98;100.00
80116;BME280;69423;47.608;19.366;2023-12-20T00:44:01;98982.66;;;-2.01;100.00
80116;BME280;69423;47.608;19.366;2023-12-20T00:44:33;98980.78;;;-1.99;100.00
80116;BME280;69423;47.608;19.366;2023-12-20T00:45:05;98979.00;;;-1.98;100.00
80116;BME280;69423;47.608;19.366;2023-12-20T00:45:36;98983.31;;;-1.97;100.00
80116;BME280;69423;47.608;19.366;2023-12-20T00:46:07;98975.25;;;-1.94;100.00
80116;BME280;69423;47.608;19.366;2023-12-20T00:46:38;98982.75;;;-1.90;100.00
80116;BME280;69423;47.608;19.366;2023-12-20T00:47:09;98980.38;;;-1.93;100.00
80116;BME280;69423;47.608;19.366;2023-12-20T00:47:40;98976.06;;;-1.94;100.00
80116;BME280;69423;47.608;19.366;2023-12-20T00:48:11;98970.22;;;-1.97;100.00
80116;BME280;69423;47.608;19.366;2023-12-20T00:48:42;98975.16;;;-1.93;100.00
80116;BME280;69423;47.608;19.366;2023-12-20T00:49:16;98969.91;;;-1.93;100.00
80116;BME280;69423;47.608;19.366;2023-12-20T00:49:47;98970.84;;;-1.94;100.00
80116;BME280;69423;47.608;19.366;2023-12-20T00:50:18;98980.38;;;-1.93;100.00
80116;BME280;69423;47.608;19.366;2023-12-20T00:50:49;98970.09;;;-1.96;100.00
80116;BME280;69423;47.608;19.366;2023-12-20T00:51:20;98977.13;;;-1.96;100.00
80116;BME280;69423;47.608;19.366;2023-12-20T00:51:51;98976.19;;;-1.95;100.00
80116;BME280;69423;47.608;19.366;2023-12-20T00:52:23;98975.34;;;-1.96;100.00
80116;BME280;69423;47.608;19.366;2023-12-20T00:52:54;98970.97;;;-1.95;100.00
80116;BME280;69423;47.608;19.366;2023-12-20T00:53:25;98973.69;;;-1.97;100.00
80116;BME280;69423;47.608;19.366;2023-12-20T00:53:56;98977.84;;;-1.94;100.00
80116;BME280;69423;47.608;19.366;2023-12-20T00:54:27;98980.28;;;-1.91;100.00
80116;BME280;69423;47.608;19.366;2023-12-20T00:54:59;98976.94;;;-1.93;100.00
80116;BME280;69423;47.608;19.366;2023-12-20T00:55:30;98979.41;;;-1.92;100.00
80116;BME280;69423;47.608;19.366;2023-12-20T00:56:01;98983.91;;;-1.94;100.00
80116;BME280;69423;47.608;19.366;2023-12-20T00:56:32;98974.94;;;-1.90;100.00
80116;BME280;69423;47.608;19.366;2023-12-20T00:57:03;98967.00;;;-1.88;100.00
80116;BME280;69423;47.608;19.366;2023-12-20T00:57:34;98979.13;;;-1.87;100.00
80116;BME280;69423;47.608;19.366;2023-12-20T00:58:05;98969.28;;;-1.84;100.00
80116;BME280;69423;47.608;19.366;2023-12-20T00:58:36;98984.22;;;-1.86;100.00
80116;BME280;69423;47.608;19.366;2023-12-20T00:59:08;98972.84;;;-1.85;100.00
80116;BME280;69423;47.608;19.366;2023-12-20T00:59:39;98986.84;;;-1.86;100.00
80116;BME280;69423;47.608;19.366;2023-12-20T01:00:10;98979.97;;;-1.87;100.00
80116;BME280;69423;47.608;19.366;2023-12-20T01:00:41;98983.50;;;-1.88;100.00
80116;BME280;69423;47.608;19.366;2023-12-20T01:01:13;98976.38;;;-1.86;100.00
80116;BME280;69423;47.608;19.366;2023-12-20T01:01:44;98980.88;;;-1.88;100.00
80116;BME280;69423;47.608;19.366;2023-12-20T01:02:15;98977.13;;;-1.84;100.00
80116;BME280;69423;47.608;19.366;2023-12-20T01:02:46;98980.16;;;-1.90;100.00
80116;BME280;69423;47.608;19.366;2023-12-20T01:03:20;98975.88;;;-1.91;100.00
80116;BME280;69423;47.608;19.366;2023-12-20T01:03:51;98979.22;;;-1.89;100.00
80116;BME280;69423;47.608;19.366;2023-12-20T01:04:22;98981.00;;;-1.89;100.00
80116;BME280;69423;47.608;19.366;2023-12-20T01:04:53;98979.97;;;-1.87;100.00
80116;BME280;69423;47.608;19.366;2023-12-20T01:05:24;98979.75;;;-1.84;100.00
80116;BME280;69423;47.608;19.366;2023-12-20T01:05:55;98979.63;;;-1.82;100.00
80116;BME280;69423;47.608;19.366;2023-12-20T01:06:26;98978.81;;;-1.83;100.00
80116;BME280;69423;47.608;19.366;2023-12-20T01:06:57;98969.28;;;-1.84;100.00
80116;BME280;69423;47.608;19.366;2023-12-20T01:07:28;98965.75;;;-1.83;100.00
80116;BME280;69423;47.608;19.366;2023-12-20T01:07:59;98969.19;;;-1.82;100.00
80116;BME280;69423;47.608;19.366;2023-12-20T01:08:30;98969.41;;;-1.85;100.00
80116;BME280;69423;47.608;19.366;2023-12-20T01:09:01;98967.63;;;-1.85;100.00
80116;BME280;69423;47.608;19.366;2023-12-20T01:09:32;98964.06;;;-1.84;100.00
80116;BME280;69423;47.608;19.366;2023-12-20T01:10:03;98962.41;;;-1.85;100.00
80116;BME280;69423;47.608;19.366;2023-12-20T01:10:34;98966.16;;;-1.89;100.00
80116;BME280;69423;47.608;19.366;2023-12-20T01:11:06;98959.16;;;-1.88;100.00
80116;BME280;69423;47.608;19.366;2023-12-20T01:11:37;98958.09;;;-1.86;100.00
80116;BME280;69423;47.608;19.366;2023-12-20T01:12:08;98962.19;;;-1.81;100.00
80116;BME280;69423;47.608;19.366;2023-12-20T01:12:39;98965.75;;;-1.83;100.00
80116;BME280;69423;47.608;19.366;2023-12-20T01:13:10;98957.91;;;-1.83;100.00
80116;BME280;69423;47.608;19.366;2023-12-20T01:13:41;98959.69;;;-1.83;100.00
80116;BME280;69423;47.608;19.366;2023-12-20T01:14:12;98960.28;;;-1.79;100.00
80116;BME280;69423;47.608;19.366;2023-12-20T01:14:43;98966.25;;;-1.77;100.00
80116;BME280;69423;47.608;19.366;2023-12-20T01:15:14;98965.31;;;-1.76;100.00
80116;BME280;69423;47.608;19.366;2023-12-20T01:15:45;98966.38;;;-1.79;100.00
80116;BME280;69423;47.608;19.366;2023-12-20T01:16:18;98966.16;;;-1.76;100.00
80116;BME280;69423;47.608;19.366;2023-12-20T01:16:49;98964.28;;;-1.74;100.00
80116;BME280;69423;47.608;19.366;2023-12-20T01:17:20;98965.09;;;-1.73;100.00
80116;BME280;69423;47.608;19.366;2023-12-20T01:17:51;98962.50;;;-1.73;100.00
80116;BME280;69423;47.608;19.366;2023-12-20T01:18:22;98968.44;;;-1.71;100.00
80116;BME280;69423;47.608;19.366;2023-12-20T01:18:53;98970.03;;;-1.69;100.00
80116;BME280;69423;47.608;19.366;2023-12-20T01:19:24;98969.91;;;-1.67;100.00
80116;BME280;69423;47.608;19.366;2023-12-20T01:19:55;98964.69;;;-1.67;100.00
80116;BME280;69423;47.608;19.366;2023-12-20T01:20:26;98966.28;;;-1.65;100.00
80116;BME280;69423;47.608;19.366;2023-12-20T01:21:02;98962.06;;;-1.67;100.00
80116;BME280;69423;47.608;19.366;2023-12-20T01:21:33;98965.53;;;-1.67;100.00
80116;BME280;69423;47.608;19.366;2023-12-20T01:22:04;98968.44;;;-1.71;100.00
80116;BME280;69423;47.608;19.366;2023-12-20T01:22:35;98964.28;;;-1.74;100.00
80116;BME280;69423;47.608;19.366;2023-12-20T01:23:07;98963.44;;;-1.74;100.00
80116;BME280;69423;47.608;19.366;2023-12-20T01:23:38;98954.66;;;-1.73;100.00
80116;BME280;69423;47.608;19.366;2023-12-20T01:24:09;98962.81;;;-1.65;100.00
80116;BME280;69423;47.608;19.366;2023-12-20T01:24:40;98955.81;;;-1.65;100.00
80116;BME280;69423;47.608;19.366;2023-12-20T01:25:11;98955.09;;;-1.67;100.00
80116;BME280;69423;47.608;19.366;2023-12-20T01:25:42;98948.28;;;-1.69;100.00
80116;BME280;69423;47.608;19.366;2023-12-20T01:26:14;98958.00;;;-1.71;100.00
80116;BME280;69423;47.608;19.366;2023-12-20T01:26:45;98946.63;;;-1.70;100.00
80116;BME280;69423;47.608;19.366;2023-12-20T01:27:16;98945.47;;;-1.66;100.00
80116;BME280;69423;47.608;19.366;2023-12-20T01:27:47;98951.63;;;-1.67;100.00
80116;BME280;69423;47.608;19.366;2023-12-20T01:28:18;98945.56;;;-1.68;100.00
80116;BME280;69423;47.608;19.366;2023-12-20T01:28:49;98948.19;;;-1.68;100.00
80116;BME280;69423;47.608;19.366;2023-12-20T01:29:20;98951.63;;;-1.67;100.00
80116;BME280;69423;47.608;19.366;2023-12-20T01:29:51;98950.69;;;-1.66;100.00
80116;BME280;69423;47.608;19.366;2023-12-20T01:30:22;98944.41;;;-1.64;100.00
80116;BME280;69423;47.608;19.366;2023-12-20T01:30:54;98943.78;;;-1.67;100.00
80116;BME280;69423;47.608;19.366;2023-12-20T01:31:26;98945.47;;;-1.66;100.00
80116;BME280;69423;47.608;19.366;2023-12-20T01:31:58;98937.53;;;-1.65;100.00
80116;BME280;69423;47.608;19.366;2023-12-20T01:32:29;98940.97;;;-1.64;100.00
80116;BME280;69423;47.608;19.366;2023-12-20T01:33:00;98941.56;;;-1.60;100.00
80116;BME280;69423;47.608;19.366;2023-12-20T01:33:32;98936.47;;;-1.62;100.00
80116;BME280;69423;47.608;19.366;2023-12-20T01:34:03;98935.50;;;-1.61;100.00
80116;BME280;69423;47.608;19.366;2023-12-20T01:34:34;98931.25;;;-1.62;100.00
80116;BME280;69423;47.608;19.366;2023-12-20T01:35:05;98932.16;;;-1.63;100.00
80116;BME280;69423;47.608;19.366;2023-12-20T01:35:36;98927.75;;;-1.63;100.00
80116;BME280;69423;47.608;19.366;2023-12-20T01:36:08;98933.72;;;-1.60;100.00
80116;BME280;69423;47.608;19.366;2023-12-20T01:36:39;98927.91;;;-1.64;100.00
80116;BME280;69423;47.608;19.366;2023-12-20T01:37:10;98928.81;;;-1.65;100.00
80116;BME280;69423;47.608;19.366;2023-12-20T01:37:41;98932.91;;;-1.61;100.00
80116;BME280;69423;47.608;19.366;2023-12-20T01:38:12;98929.22;;;-1.58;100.00
80116;BME280;69423;47.608;19.366;2023-12-20T01:38:43;98927.47;;;-1.58;100.00
80116;BME280;69423;47.608;19.366;2023-12-20T01:39:14;98928.50;;;-1.60;100.00
80116;BME280;69423;47.608;19.366;2023-12-20T01:39:45;98926.75;;;-1.60;100.00
80116;BME280;69423;47.608;19.366;2023-12-20T01:40:16;98925.78;;;-1.59;100.00
80116;BME280;69423;47.608;19.366;2023-12-20T01:40:47;98922.00;;;-1.55;100.00
80116;BME280;69423;47.608;19.366;2023-12-20T01:41:19;98923.47;;;-1.51;100.00
80116;BME280;69423;47.608;19.366;2023-12-20T01:41:50;98915.97;;;-1.55;100.00
80116;BME280;69423;47.608;19.366;2023-12-20T01:42:21;98915.13;;;-1.56;100.00
80116;BME280;69423;47.608;19.366;2023-12-20T01:43:08;98905.09;;;-1.62;100.00
80116;BME280;69423;47.608;19.366;2023-12-20T01:43:39;98909.69;;;-1.66;100.00
80116;BME280;69423;47.608;19.366;2023-12-20T01:44:10;98910.94;;;-1.58;100.00
80116;BME280;69423;47.608;19.366;2023-12-20T01:44:41;98914.41;;;-1.58;100.00
80116;BME280;69423;47.608;19.366;2023-12-20T01:45:12;98900.28;;;-1.55;100.00
80116;BME280;69423;47.608;19.366;2023-12-20T01:45:43;98906.31;;;-1.55;100.00
80116;BME280;69423;47.608;19.366;2023-12-20T01:46:14;98905.41;;;-1.54;100.00
80116;BME280;69423;47.608;19.366;2023-12-20T01:46:47;98902.66;;;-1.52;100.00
80116;BME280;69423;47.608;19.366;2023-12-20T01:47:18;98906.13;;;-1.52;100.00
80116;BME280;69423;47.608;19.366;2023-12-20T01:47:49;98896.59;;;-1.53;100.00
80116;BME280;69423;47.608;19.366;2023-12-20T01:48:21;98894.72;;;-1.51;100.00
80116;BME280;69423;47.608;19.366;2023-12-20T01:48:52;98899.09;;;-1.51;100.00
80116;BME280;69423;47.608;19.366;2023-12-20T01:49:23;98897.66;;;-1.55;100.00
80116;BME280;69423;47.608;19.366;2023-12-20T01:49:55;98893.47;;;-1.58;100.00
80116;BME280;69423;47.608;19.366;2023-12-20T01:50:28;98887.53;;;-1.60;100.00
80116;BME280;69423;47.608;19.366;2023-12-20T01:51:00;98894.22;;;-1.56;100.00
80116;BME280;69423;47.608;19.366;2023-12-20T01:51:32;98888.97;;;-1.56;100.00
80116;BME280;69423;47.608;19.366;2023-12-20T01:52:04;98888.97;;;-1.56;100.00
80116;BME280;69423;47.608;19.366;2023-12-20T01:52:35;98894.81;;;-1.52;100.00
80116;BME280;69423;47.608;19.366;2023-12-20T01:53:07;98892.09;;;-1.51;100.00
80116;BME280;69423;47.608;19.366;2023-12-20T01:53:40;98887.19;;;-1.55;100.00
80116;BME280;69423;47.608;19.366;2023-12-20T01:54:12;98886.66;;;-1.60;100.00
80116;BME280;69423;47.608;19.366;2023-12-20T01:54:43;98888.34;;;-1.59;100.00
80116;BME280;69423;47.608;19.366;2023-12-20T01:55:14;98890.00;;;-1.58;100.00
80116;BME280;69423;47.608;19.366;2023-12-20T01:55:48;98882.16;;;-1.58;100.00
80116;BME280;69423;47.608;19.366;2023-12-20T01:56:21;98890.88;;;-1.58;100.00
80116;BME280;69423;47.608;19.366;2023-12-20T01:56:52;98886.56;;;-1.59;100.00
80116;BME280;69423;47.608;19.366;2023-12-20T01:57:23;98882.16;;;-1.58;100.00
80116;BME280;69423;47.608;19.366;2023-12-20T01:57:55;98878.53;;;-1.56;100.00
80116;BME280;69423;47.608;19.366;2023-12-20T01:58:26;98874.47;;;-1.60;100.00
80116;BME280;69423;47.608;19.366;2023-12-20T01:58:58;98878.09;;;-1.63;100.00
80116;BME280;69423;47.608;19.366;2023-12-20T01:59:30;98874.66;;;-1.63;100.00
80116;BME280;69423;47.608;19.366;2023-12-20T02:00:02;98865.88;;;-1.62;100.00
80116;BME280;69423;47.608;19.366;2023-12-20T02:00:34;98870.88;;;-1.59;100.00
80116;BME280;69423;47.608;19.366;2023-12-20T02:01:06;98867.63;;;-1.63;100.00
80116;BME280;69423;47.608;19.366;2023-12-20T02:01:37;98868.28;;;-1.59;100.00
80116;BME280;69423;47.608;19.366;2023-12-20T02:02:08;98869.09;;;-1.58;100.00
80116;BME280;69423;47.608;19.366;2023-12-20T02:02:40;98869.09;;;-1.58;100.00
80116;BME280;69423;47.608;19.366;2023-12-20T02:03:11;98867.09;;;-1.55;100.00
80116;BME280;69423;47.608;19.366;2023-12-20T02:03:42;98865.66;;;-1.59;100.00
80116;BME280;69423;47.608;19.366;2023-12-20T02:04:15;98867.34;;;-1.58;100.00
80116;BME280;69423;47.608;19.366;2023-12-20T02:04:46;98866.38;;;-1.57;100.00
80116;BME280;69423;47.608;19.366;2023-12-20T02:05:18;98863.66;;;-1.55;100.00
80116;BME280;69423;47.608;19.366;2023-12-20T02:05:50;98857.81;;;-1.59;100.00
80116;BME280;69423;47.608;19.366;2023-12-20T02:06:22;98869.22;;;-1.60;100.00
80116;BME280;69423;47.608;19.366;2023-12-20T02:06:56;98857.41;;;-1.66;100.00
80116;BME280;69423;47.608;19.366;2023-12-20T02:07:29;98855.97;;;-1.70;100.00
80116;BME280;69423;47.608;19.366;2023-12-20T02:08:01;98851.56;;;-1.69;100.00
80116;BME280;69423;47.608;19.366;2023-12-20T02:08:32;98851.06;;;-1.74;100.00
80116;BME280;69423;47.608;19.366;2023-12-20T02:09:04;98846.56;;;-1.72;100.00
80116;BME280;69423;47.608;19.366;2023-12-20T02:09:35;98842.16;;;-1.72;100.00
80116;BME280;69423;47.608;19.366;2023-12-20T02:10:06;98847.19;;;-1.69;100.00
80116;BME280;69423;47.608;19.366;2023-12-20T02:10:37;98841.84;;;-1.67;100.00
80116;BME280;69423;47.608;19.366;2023-12-20T02:11:10;98836.50;;;-1.66;100.00
80116;BME280;69423;47.608;19.366;2023-12-20T02:11:41;98831.66;;;-1.59;100.00
80116;BME280;69423;47.608;19.366;2023-12-20T02:12:12;98840.56;;;-1.61;100.00
80116;BME280;69423;47.608;19.366;2023-12-20T02:12:43;98841.41;;;-1.61;100.00
80116;BME280;69423;47.608;19.366;2023-12-20T02:13:14;98840.66;;;-1.63;100.00
80116;BME280;69423;47.608;19.366;2023-12-20T02:13:45;98844.00;;;-1.61;100.00
80116;BME280;69423;47.608;19.366;2023-12-20T02:14:17;98846.44;;;-1.58;100.00
80116;BME280;69423;47.608;19.366;2023-12-20T02:14:48;98837.13;;;-1.62;100.00
80116;BME280;69423;47.608;19.366;2023-12-20T02:15:19;98836.41;;;-1.64;100.00
80116;BME280;69423;47.608;19.366;2023-12-20T02:15:50;98843.41;;;-1.65;100.00
80116;BME280;69423;47.608;19.366;2023-12-20T02:16:22;98842.78;;;-1.68;100.00
80116;BME280;69423;47.608;19.366;2023-12-20T02:16:53;98841.25;;;-1.71;100.00
80116;BME280;69423;47.608;19.366;2023-12-20T02:17:24;98835.59;;;-1.77;100.00
80116;BME280;69423;47.608;19.366;2023-12-20T02:17:56;98832.75;;;-1.74;100.00
80116;BME280;69423;47.608;19.366;2023-12-20T02:18:27;98830.88;;;-1.72;100.00
80116;BME280;69423;47.608;19.366;2023-12-20T02:18:58;98834.31;;;-1.72;100.00
80116;BME280;69423;47.608;19.366;2023-12-20T02:19:29;98833.50;;;-1.72;100.00
80116;BME280;69423;47.608;19.366;2023-12-20T02:20:00;98830.88;;;-1.72;100.00
80116;BME280;69423;47.608;19.366;2023-12-20T02:20:31;98824.69;;;-1.71;100.00
80116;BME280;69423;47.608;19.366;2023-12-20T02:21:04;98827.53;;;-1.74;100.00
80116;BME280;69423;47.608;19.366;2023-12-20T02:21:36;98834.22;;;-1.70;100.00
80116;BME280;69423;47.608;19.366;2023-12-20T02:22:11;98827.53;;;-1.74;100.00
80116;BME280;69423;47.608;19.366;2023-12-20T02:22:42;98827.53;;;-1.74;100.00
80116;BME280;69423;47.608;19.366;2023-12-20T02:23:13;98828.16;;;-1.71;100.00
80116;BME280;69423;47.608;19.366;2023-12-20T02:23:44;98827.84;;;-1.66;100.00
80116;BME280;69423;47.608;19.366;2023-12-20T02:24:15;98818.53;;;-1.70;100.00
80116;BME280;69423;47.608;19.366;2023-12-20T02:24:48;98821.66;;;-1.65;100.00
80116;BME280;69423;47.608;19.366;2023-12-20T02:25:19;98831.91;;;-1.62;100.00
80116;BME280;69423;47.608;19.366;2023-12-20T02:25:50;98828.44;;;-1.63;100.00
80116;BME280;69423;47.608;19.366;2023-12-20T02:26:21;98833.66;;;-1.63;100.00
80116;BME280;69423;47.608;19.366;2023-12-20T02:26:52;98824.78;;;-1.60;100.00
80116;BME280;69423;47.608;19.366;2023-12-20T02:27:23;98828.31;;;-1.61;100.00
80116;BME280;69423;47.608;19.366;2023-12-20T02:27:55;98836.16;;;-1.61;100.00
80116;BME280;69423;47.608;19.366;2023-12-20T02:28:26;98828.94;;;-1.57;100.00
80116;BME280;69423;47.608;19.366;2023-12-20T02:28:58;98829.06;;;-1.59;100.00
80116;BME280;69423;47.608;19.366;2023-12-20T02:29:30;98820.38;;;-1.59;100.00
80116;BME280;69423;47.608;19.366;2023-12-20T02:30:01;98826.44;;;-1.59;100.00
80116;BME280;69423;47.608;19.366;2023-12-20T02:30:33;98829.78;;;-1.57;100.00
80116;BME280;69423;47.608;19.366;2023-12-20T02:31:04;98824.34;;;-1.54;100.00
80116;BME280;69423;47.608;19.366;2023-12-20T02:31:35;98818.88;;;-1.51;100.00
80116;BME280;69423;47.608;19.366;2023-12-20T02:32:06;98819.84;;;-1.52;100.00
80116;BME280;69423;47.608;19.366;2023-12-20T02:32:37;98822.56;;;-1.53;100.00
80116;BME280;69423;47.608;19.366;2023-12-20T02:33:12;98816.16;;;-1.49;100.00
80116;BME280;69423;47.608;19.366;2023-12-20T02:33:43;98819.94;;;-1.53;100.00
80116;BME280;69423;47.608;19.366;2023-12-20T02:34:14;98823.50;;;-1.54;100.00
80116;BME280;69423;47.608;19.366;2023-12-20T02:34:47;98821.94;;;-1.57;100.00
80116;BME280;69423;47.608;19.366;2023-12-20T02:35:18;98821.44;;;-1.62;100.00
80116;BME280;69423;47.608;19.366;2023-12-20T02:35:49;98817.88;;;-1.61;100.00
80116;BME280;69423;47.608;19.366;2023-12-20T02:36:20;98823.94;;;-1.60;100.00
80116;BME280;69423;47.608;19.366;2023-12-20T02:36:51;98822.38;;;-1.63;100.00
80116;BME280;69423;47.608;19.366;2023-12-20T02:37:23;98818.84;;;-1.62;100.00
80116;BME280;69423;47.608;19.366;2023-12-20T02:37:54;98815.97;;;-1.59;100.00
80116;BME280;69423;47.608;19.366;2023-12-20T02:38:25;98827.59;;;-1.63;100.00
80116;BME280;69423;47.608;19.366;2023-12-20T02:38:56;98814.53;;;-1.63;100.00
80116;BME280;69423;47.608;19.366;2023-12-20T02:39:27;98819.66;;;-1.61;100.00
80116;BME280;69423;47.608;19.366;2023-12-20T02:39:58;98812.44;;;-1.58;100.00
80116;BME280;69423;47.608;19.366;2023-12-20T02:40:29;98817.78;;;-1.59;100.00
80116;BME280;69423;47.608;19.366;2023-12-20T02:41:00;98821.53;;;-1.64;100.00
80116;BME280;69423;47.608;19.366;2023-12-20T02:41:31;98810.25;;;-1.64;100.00
80116;BME280;69423;47.608;19.366;2023-12-20T02:42:02;98813.59;;;-1.62;100.00